Time;durP1;ratioP1;P1;durP2;ratioP2;P2;SDS_P1;SDS_P2;PMS_P1;PMS_P2;Temp;Humidity;BMP_temperature;BMP_pressure;BME280_temperature;BME280_humidity;BME280_pressure;Samples;Min_cycle;Max_cycle;Signal;HPM_P1;HPM_P2
2023/02/12 00:01:23;;;;;;;23.50;19.30;;;;;;;1.56;100.00;99671.59;106005;1259;61058;-74
2023/02/12 00:03:53;;;;;;;21.70;17.00;;;;;;;1.56;100.00;99674.84;105893;1262;74809;-72
2023/02/12 00:06:21;;;;;;;20.50;15.90;;;;;;;1.54;100.00;99675.34;105503;1255;68107;-74
2023/02/12 00:08:53;;;;;;;21.70;16.10;;;;;;;1.53;100.00;99674.25;105556;1254;73431;-76
2023/02/12 00:11:26;;;;;;;18.90;15.40;;;;;;;1.53;100.00;99677.48;105901;1254;59669;-73
2023/02/12 00:13:55;;;;;;;18.10;15.50;;;;;;;1.54;100.00;99686.52;105941;1254;60811;-74
2023/02/12 00:16:25;;;;;;;20.20;15.60;;;;;;;1.56;100.00;99686.83;105857;1254;74383;-77
2023/02/12 00:18:55;;;;;;;17.40;13.80;;;;;;;1.55;100.00;99684.58;105970;1255;68004;-74
2023/02/12 00:21:24;;;;;;;19.60;15.30;;;;;;;1.55;100.00;99687.31;105893;1254;72014;-75
2023/02/12 00:23:52;;;;;;;17.50;14.30;;;;;;;1.52;100.00;99690.48;105891;1254;63007;-75
2023/02/12 00:26:21;;;;;;;16.60;13.60;;;;;;;1.51;100.00;99694.90;105983;1254;60430;-75
2023/02/12 00:28:50;;;;;;;14.30;12.50;;;;;;;1.50;100.00;99701.20;105930;1255;72605;-75
2023/02/12 00:31:20;;;;;;;15.40;12.70;;;;;;;1.50;100.00;99702.95;105793;1260;69853;-75
2023/02/12 00:33:49;;;;;;;15.80;12.20;;;;;;;1.51;100.00;99700.52;105910;1254;73020;-77
2023/02/12 00:36:19;;;;;;;14.20;10.60;;;;;;;1.53;100.00;99711.59;105818;1254;61116;-74
2023/02/12 00:38:50;;;;;;;14.30;10.80;;;;;;;1.54;100.00;99717.83;105746;1254;61260;-76
2023/02/12 00:41:19;;;;;;;16.10;12.30;;;;;;;1.55;100.00;99716.27;105800;1254;72928;-76
2023/02/12 00:43:48;;;;;;;14.30;12.30;;;;;;;1.55;100.00;99714.16;105815;1257;67036;-77
2023/02/12 00:46:17;;;;;;;13.40;10.90;;;;;;;1.54;100.00;99717.22;105768;1260;71774;-76
2023/02/12 00:48:46;;;;;;;16.50;11.60;;;;;;;1.53;100.00;99720.98;105825;1257;62284;-73
2023/02/12 00:51:14;;;;;;;12.40;10.50;;;;;;;1.53;100.00;99725.50;105398;1257;61285;-74
2023/02/12 00:53:43;;;;;;;13.20;10.00;;;;;;;1.55;100.00;99730.92;109337;1254;73427;-75
2023/02/12 00:56:12;;;;;;;13.60;10.20;;;;;;;1.57;100.00;99726.60;109392;1256;67008;-75
2023/02/12 00:58:40;;;;;;;13.70;10.50;;;;;;;1.61;100.00;99733.23;109288;1256;72210;-77
2023/02/12 01:01:08;;;;;;;12.70;10.00;;;;;;;1.63;100.00;99740.39;109389;1256;59619;-76
2023/02/12 01:03:37;;;;;;;13.60;10.60;;;;;;;1.64;100.00;99739.66;109398;1256;59418;-75
2023/02/12 01:06:06;;;;;;;12.40;10.10;;;;;;;1.66;100.00;99752.73;109404;1256;72105;-74
2023/02/12 01:08:34;;;;;;;12.30;9.40;;;;;;;1.67;100.00;99753.76;109405;1256;67534;-75
2023/02/12 01:11:04;;;;;;;10.10;9.10;;;;;;;1.69;100.00;99759.16;109148;1256;72862;-76
2023/02/12 01:13:36;;;;;;;11.60;8.20;;;;;;;1.72;100.00;99759.83;109299;1256;61518;-74
2023/02/12 01:16:11;;;;;;;9.00;7.40;;;;;;;1.75;100.00;99770.64;109318;1255;58930;-74
2023/02/12 01:18:40;;;;;;;9.70;7.40;;;;;;;1.78;100.00;99764.36;109300;1257;71144;-73
2023/02/12 01:21:18;;;;;;;7.60;6.90;;;;;;;1.80;100.00;99770.26;109443;1256;67112;-75
2023/02/12 01:23:47;;;;;;;8.10;7.20;;;;;;;1.83;100.00;99775.55;109284;1256;72035;-74
2023/02/12 01:26:15;;;;;;;7.20;6.40;;;;;;;1.84;100.00;99773.47;109303;1255;61468;-75
2023/02/12 01:28:50;;;;;;;8.90;7.80;;;;;;;1.85;100.00;99782.38;109336;1256;58518;-78
2023/02/12 01:31:22;;;;;;;7.00;6.30;;;;;;;1.87;100.00;99782.97;109314;1256;73849;-77
2023/02/12 01:33:52;;;;;;;8.90;8.00;;;;;;;1.87;100.00;99782.42;109382;1255;67422;-76
2023/02/12 01:36:20;;;;;;;8.50;6.10;;;;;;;1.89;100.00;99793.44;109285;1255;73185;-76
2023/02/12 01:38:50;;;;;;;7.00;6.40;;;;;;;1.89;100.00;99804.60;109275;1256;61769;-74
2023/02/12 01:41:32;;;;;;;6.70;5.90;;;;;;;1.88;100.00;99809.13;109415;1255;60182;-77
2023/02/12 01:44:18;;;;;;;6.30;5.60;;;;;;;1.89;100.00;99804.67;109411;1255;74238;-74
2023/02/12 01:46:55;;;;;;;6.40;5.40;;;;;;;1.92;100.00;99819.11;109292;1256;68827;-75
2023/02/12 01:49:35;;;;;;;6.40;5.50;;;;;;;1.95;100.00;99819.06;109402;1255;72021;-77
2023/02/12 01:52:14;;;;;;;6.70;5.40;;;;;;;1.97;100.00;99826.77;109249;1256;58657;-78
2023/02/12 01:54:42;;;;;;;6.00;5.30;;;;;;;1.96;100.00;99833.76;109251;1256;61500;-76
2023/02/12 01:57:11;;;;;;;5.90;5.10;;;;;;;1.95;100.00;99836.70;109245;1256;70605;-75
2023/02/12 01:59:39;;;;;;;4.80;4.30;;;;;;;1.95;100.00;99845.39;109193;1256;65718;-75
2023/02/12 02:02:07;;;;;;;5.20;4.70;;;;;;;1.95;100.00;99854.40;109169;1255;71569;-75
2023/02/12 02:04:43;;;;;;;5.10;4.60;;;;;;;1.94;100.00;99863.23;109360;1256;62042;-75
2023/02/12 02:07:11;;;;;;;5.00;4.40;;;;;;;1.91;100.00;99873.54;109176;1257;59121;-74
2023/02/12 02:09:39;;;;;;;6.20;4.80;;;;;;;1.88;100.00;99873.90;109356;1255;72571;-75
2023/02/12 02:14:58;;;;;;;5.50;5.00;;;;;;;1.78;100.00;99889.23;109269;1256;71401;-74
2023/02/12 02:17:48;;;;;;;5.60;5.10;;;;;;;1.72;100.00;99895.58;109144;1256;58900;-75
2023/02/12 02:20:35;;;;;;;4.80;4.00;;;;;;;1.66;100.00;99897.96;109375;1256;59200;-75
2023/02/12 02:23:12;;;;;;;3.90;3.60;;;;;;;1.64;100.00;99904.45;109372;1255;74068;-76
2023/02/12 02:26:15;;;;;;;3.40;3.10;;;;;;;1.59;100.00;99922.45;109363;1255;66815;-76
2023/02/12 02:28:55;;;;;;;3.10;2.90;;;;;;;1.56;100.00;99938.05;109097;1255;71673;-77
2023/02/12 02:31:36;;;;;;;2.40;2.30;;;;;;;1.53;100.00;99931.58;109331;1256;60388;-78
2023/02/12 02:34:33;;;;;;;3.20;2.90;;;;;;;1.50;100.00;99942.86;109380;1255;59255;-79
2023/02/12 02:37:13;;;;;;;2.60;2.40;;;;;;;1.40;100.00;99955.29;109257;1256;72693;-75
2023/02/12 02:39:47;;;;;;;2.70;2.30;;;;;;;1.31;100.00;99960.40;109173;1256;66701;-74
2023/02/12 02:42:19;;;;;;;1.80;1.70;;;;;;;1.21;100.00;99977.95;109228;1256;72439;-74
2023/02/12 02:44:58;;;;;;;2.00;1.90;;;;;;;1.14;100.00;99976.38;109119;1256;59903;-76
2023/02/12 02:47:32;;;;;;;1.80;1.70;;;;;;;1.14;98.05;99984.90;109247;1256;58232;-75
2023/02/12 02:50:05;;;;;;;1.80;1.70;;;;;;;1.11;96.71;99987.38;109244;1256;72337;-75
2023/02/12 02:52:40;;;;;;;1.40;1.30;;;;;;;1.06;94.75;100004.73;109241;1256;66915;-75
2023/02/12 02:55:08;;;;;;;2.00;1.50;;;;;;;1.01;93.76;100015.15;109287;1256;72101;-73
2023/02/12 02:57:52;;;;;;;2.50;1.30;;;;;;;0.94;92.04;100016.73;109135;1256;58847;-75
2023/02/12 03:00:23;;;;;;;1.80;1.30;;;;;;;0.81;91.82;100027.61;109141;1256;58697;-75
2023/02/12 03:02:55;;;;;;;1.90;1.80;;;;;;;0.76;92.22;100031.36;109169;1256;72990;-75
2023/02/12 03:05:37;;;;;;;1.80;1.60;;;;;;;0.73;92.65;100035.25;109184;1257;67070;-76
2023/02/12 03:08:24;;;;;;;1.70;1.60;;;;;;;0.66;92.69;100049.51;109208;1256;73556;-76
2023/02/12 03:11:03;;;;;;;1.60;1.50;;;;;;;0.63;92.81;100060.64;109132;1256;59206;-74
2023/02/12 03:13:39;;;;;;;2.30;1.50;;;;;;;0.57;92.99;100079.14;109179;1256;59038;-76
2023/02/12 03:16:13;;;;;;;1.80;1.70;;;;;;;0.50;93.05;100082.89;109144;1256;73391;-74
2023/02/12 03:18:45;;;;;;;1.60;1.40;;;;;;;0.48;92.92;100094.98;109197;1256;67500;-75
2023/02/12 03:21:15;;;;;;;1.50;1.40;;;;;;;0.48;92.19;100093.27;109126;1256;71598;-74
2023/02/12 03:24:21;;;;;;;1.20;1.20;;;;;;;0.46;91.68;100099.41;109043;1256;58651;-75
2023/02/12 03:26:53;;;;;;;1.60;1.50;;;;;;;0.41;89.96;100116.63;108951;1256;58630;-75
2023/02/12 03:29:21;;;;;;;1.80;1.60;;;;;;;0.38;89.63;100127.34;109158;1256;72295;-75
2023/02/12 03:32:13;;;;;;;2.60;1.90;;;;;;;0.31;88.59;100139.95;109322;1256;67176;-75
2023/02/12 03:34:49;;;;;;;2.50;1.50;;;;;;;0.28;87.77;100139.76;109165;1256;72461;-76
2023/02/12 03:37:23;;;;;;;3.10;2.30;;;;;;;0.23;86.47;100135.42;109151;1256;60827;-76
2023/02/12 03:39:55;;;;;;;2.50;2.30;;;;;;;0.16;86.00;100148.74;108410;1256;1002388;-76
2023/02/12 03:42:26;;;;;;;2.50;1.90;;;;;;;0.13;85.44;100162.81;109149;1257;73089;-75
2023/02/12 03:45:02;;;;;;;1.70;1.60;;;;;;;0.11;84.90;100183.30;109363;1256;68347;-73
2023/02/12 03:48:04;;;;;;;2.00;1.40;;;;;;;0.03;83.53;100186.35;109313;1256;73914;-74
2023/02/12 03:50:40;;;;;;;2.30;1.60;;;;;;;-0.04;82.83;100195.73;109151;1256;62273;-72
2023/02/12 03:53:09;;;;;;;1.60;1.50;;;;;;;-0.06;82.52;100206.48;109109;1257;59465;-73
2023/02/12 03:55:40;;;;;;;2.40;1.90;;;;;;;-0.07;82.60;100212.94;109167;1256;72874;-73
2023/02/12 03:58:09;;;;;;;1.70;1.60;;;;;;;-0.10;81.97;100216.25;109184;1257;67970;-73
2023/02/12 04:00:38;;;;;;;1.70;1.60;;;;;;;-0.14;81.31;100222.27;109146;1257;73798;-72
2023/02/12 04:03:06;;;;;;;2.20;2.00;;;;;;;-0.23;80.05;100243.63;109139;1257;59930;-71
2023/02/12 04:05:34;;;;;;;2.40;1.80;;;;;;;-0.27;79.73;100235.29;109135;1256;58193;-72
2023/02/12 04:08:04;;;;;;;3.60;2.30;;;;;;;-0.34;79.08;100243.64;109212;1256;75043;-73
2023/02/12 04:10:45;;;;;;;1.70;1.30;;;;;;;-0.35;79.24;100255.42;109123;1256;69201;-72
2023/02/12 04:13:19;;;;;;;4.60;1.50;;;;;;;-0.40;78.61;100248.13;109088;1256;71919;-72
2023/02/12 04:16:15;;;;;;;3.00;2.00;;;;;;;-0.40;78.42;100247.86;109118;1256;58175;-73
2023/02/12 04:18:45;;;;;;;1.90;1.80;;;;;;;-0.42;78.13;100256.81;109248;1256;59887;-71
2023/02/12 04:21:39;;;;;;;1.70;1.60;;;;;;;-0.47;77.98;100269.83;109157;1256;72873;-72
2023/02/12 04:24:18;;;;;;;1.70;1.40;;;;;;;-0.50;78.14;100283.80;109083;1256;66172;-69
2023/02/12 04:26:55;;;;;;;4.00;1.70;;;;;;;-0.54;78.16;100287.16;109233;1256;70875;-71
2023/02/12 04:29:30;;;;;;;2.20;1.90;;;;;;;-0.57;78.24;100282.92;109220;1256;59836;-72
2023/02/12 04:32:13;;;;;;;2.30;2.10;;;;;;;-0.58;78.31;100282.98;109160;1257;59957;-72
2023/02/12 04:34:59;;;;;;;3.30;1.80;;;;;;;-0.61;77.17;100288.30;109230;1256;74055;-72
2023/02/12 04:37:34;;;;;;;2.40;2.20;;;;;;;-0.64;76.55;100300.55;109171;1257;67046;-72
2023/02/12 04:40:05;;;;;;;4.10;2.50;;;;;;;-0.67;75.69;100306.58;109267;1256;71520;-73
2023/02/12 04:42:49;;;;;;;2.30;2.10;;;;;;;-0.66;75.59;100305.77;109100;1256;58186;-73
2023/02/12 04:45:36;;;;;;;6.20;3.10;;;;;;;-0.68;75.38;100311.44;109162;1256;59965;-73
2023/02/12 04:48:04;;;;;;;6.00;3.60;;;;;;;-0.69;74.77;100321.38;109142;1256;74043;-73
2023/02/12 04:50:42;;;;;;;3.90;2.80;;;;;;;-0.70;74.20;100323.77;109176;1256;66621;-71
2023/02/12 04:53:11;;;;;;;4.80;3.00;;;;;;;-0.72;73.91;100324.55;109172;1257;72696;-72
2023/02/12 04:55:39;;;;;;;7.10;3.50;;;;;;;-0.72;73.69;100333.02;109170;1257;58207;-73
2023/02/12 04:58:08;;;;;;;5.70;4.00;;;;;;;-0.74;73.53;100326.28;109194;1256;59749;-74
2023/02/12 05:00:37;;;;;;;9.10;4.40;;;;;;;-0.78;73.14;100334.45;109061;1256;75030;-72
2023/02/12 05:03:05;;;;;;;5.50;3.60;;;;;;;-0.83;72.58;100343.30;109116;1257;67606;-73
2023/02/12 05:05:34;;;;;;;9.60;3.80;;;;;;;-0.83;72.88;100339.27;109183;1256;71802;-71
2023/02/12 05:08:02;;;;;;;6.90;2.80;;;;;;;-0.84;72.71;100341.34;109106;1257;58244;-71
2023/02/12 05:10:31;;;;;;;4.20;2.80;;;;;;;-0.89;72.19;100353.47;109184;1256;59648;-73
2023/02/12 05:13:05;;;;;;;2.90;2.50;;;;;;;-0.93;71.87;100368.12;109180;1257;73696;-72
2023/02/12 05:15:34;;;;;;;1.90;1.80;;;;;;;-0.95;71.82;100365.86;109120;1257;65933;-72
2023/02/12 05:18:03;;;;;;;6.60;3.20;;;;;;;-0.97;71.59;100381.56;109142;1256;70243;-72
2023/02/12 05:20:32;;;;;;;2.40;2.20;;;;;;;-1.01;71.09;100381.18;109126;1257;58928;-72
2023/02/12 05:23:01;;;;;;;4.10;2.70;;;;;;;-1.05;71.14;100396.31;109181;1256;58414;-69
2023/02/12 05:25:30;;;;;;;4.90;3.00;;;;;;;-1.07;71.21;100405.33;109202;1256;74260;-71
2023/02/12 05:27:59;;;;;;;3.20;2.30;;;;;;;-1.09;71.31;100410.60;109188;1256;67714;-72
2023/02/12 05:30:27;;;;;;;2.10;1.90;;;;;;;-1.13;71.70;100408.20;109124;1257;71663;-71
2023/02/12 05:32:55;;;;;;;2.20;2.00;;;;;;;-1.16;71.76;100415.05;109121;1257;61295;-72
2023/02/12 05:35:23;;;;;;;1.90;1.80;;;;;;;-1.19;72.22;100419.52;109182;1257;59064;-71
2023/02/12 05:37:52;;;;;;;3.30;1.90;;;;;;;-1.20;72.22;100428.84;109108;1257;73584;-70
2023/02/12 05:40:20;;;;;;;4.70;2.00;;;;;;;-1.20;72.56;100424.46;109215;1256;66978;-71
2023/02/12 05:42:49;;;;;;;3.40;1.80;;;;;;;-1.23;72.83;100429.13;109171;1257;70615;-70
2023/02/12 05:45:17;;;;;;;1.60;1.50;;;;;;;-1.25;73.17;100435.26;109129;1256;59268;-73
2023/02/12 05:47:46;;;;;;;2.30;2.10;;;;;;;-1.25;73.73;100442.38;109207;1256;58286;-75
2023/02/12 05:50:14;;;;;;;4.40;1.90;;;;;;;-1.21;73.82;100450.23;109182;1256;74741;-71
2023/02/12 05:52:43;;;;;;;6.20;3.10;;;;;;;-1.19;73.79;100451.74;109126;1257;68068;-70
2023/02/12 05:55:11;;;;;;;6.00;3.00;;;;;;;-1.15;73.71;100449.59;109074;1257;72122;-70
2023/02/12 05:57:41;;;;;;;2.60;2.20;;;;;;;-1.11;73.83;100456.35;109095;1257;62261;-74
2023/02/12 06:00:13;;;;;;;3.20;2.50;;;;;;;-1.05;73.94;100464.73;109099;1257;60268;-72
2023/02/12 06:02:42;;;;;;;7.00;2.50;;;;;;;-1.01;73.80;100472.81;109125;1257;74009;-74
2023/02/12 06:05:11;;;;;;;6.30;3.00;;;;;;;-0.97;73.94;100476.70;109153;1257;65506;-72
2023/02/12 06:07:40;;;;;;;15.00;7.10;;;;;;;-0.93;73.83;100477.02;109129;1257;72370;-72
2023/02/12 06:10:08;;;;;;;13.10;4.90;;;;;;;-0.94;73.51;100485.72;109110;1257;59840;-75
2023/02/12 06:12:39;;;;;;;6.40;3.80;;;;;;;-0.92;73.63;100486.13;109110;1257;58759;-76
2023/02/12 06:15:07;;;;;;;3.10;2.20;;;;;;;-0.92;73.40;100493.10;109120;1257;71827;-72
2023/02/12 06:17:37;;;;;;;3.10;2.50;;;;;;;-0.90;73.21;100493.66;109056;1257;66917;-69
2023/02/12 06:20:07;;;;;;;6.40;2.50;;;;;;;-0.94;72.23;100501.58;109143;1257;73739;-77
2023/02/12 06:22:37;;;;;;;3.10;1.90;;;;;;;-0.98;71.66;100515.92;109131;1257;58737;-75
2023/02/12 06:25:07;;;;;;;5.70;2.70;;;;;;;-0.98;71.56;100519.23;109031;1257;60393;-72
2023/02/12 06:27:36;;;;;;;4.70;2.80;;;;;;;-0.99;71.00;100521.80;109101;1257;74120;-71
2023/02/12 06:30:05;;;;;;;4.40;2.40;;;;;;;-1.02;70.59;100516.89;109162;1257;66814;-72
2023/02/12 06:32:35;;;;;;;3.10;2.00;;;;;;;-1.01;70.77;100524.45;109102;1257;70879;-70
2023/02/12 06:35:05;;;;;;;3.80;1.90;;;;;;;-1.02;70.79;100527.38;109122;1257;59218;-75
2023/02/12 06:37:35;;;;;;;2.70;2.50;;;;;;;-1.03;70.31;100521.92;109133;1257;59678;-74
2023/02/12 06:40:07;;;;;;;2.10;1.90;;;;;;;-1.00;70.40;100532.48;109103;1257;74866;-75
2023/02/12 06:42:36;;;;;;;2.00;1.70;;;;;;;-0.96;70.06;100536.11;109177;1257;67522;-76
2023/02/12 06:45:06;;;;;;;2.60;2.00;;;;;;;-0.92;70.35;100536.27;109082;1257;70556;-73
2023/02/12 06:47:34;;;;;;;3.70;2.40;;;;;;;-0.88;70.24;100543.65;109126;1257;58851;-73
2023/02/12 06:50:04;;;;;;;1.90;1.80;;;;;;;-0.85;70.09;100550.59;109131;1257;61634;-76
2023/02/12 06:52:34;;;;;;;3.30;2.00;;;;;;;-0.86;69.52;100556.07;108965;1259;74184;-75
2023/02/12 06:55:05;;;;;;;2.30;1.80;;;;;;;-0.89;69.13;100546.97;109031;1260;68205;-73
2023/02/12 06:57:37;;;;;;;3.40;2.20;;;;;;;-0.90;69.55;100547.80;109066;1260;73981;-76
2023/02/12 07:00:10;;;;;;;2.90;1.60;;;;;;;-0.93;69.18;100552.56;109055;1259;60504;-74
2023/02/12 07:02:43;;;;;;;3.00;1.70;;;;;;;-0.94;69.40;100554.04;109084;1259;62512;-72
2023/02/12 07:05:16;;;;;;;2.70;2.20;;;;;;;-0.96;69.22;100543.36;109075;1259;72772;-76
2023/02/12 07:07:46;;;;;;;3.50;2.20;;;;;;;-0.95;69.51;100555.91;109088;1259;69280;-73
2023/02/12 07:10:17;;;;;;;2.60;1.90;;;;;;;-0.96;69.08;100560.95;108927;1259;72239;-81
2023/02/12 07:12:48;;;;;;;2.20;1.70;;;;;;;-0.94;68.88;100563.95;108925;1260;60322;-76
2023/02/12 07:15:20;;;;;;;3.90;2.00;;;;;;;-0.91;68.62;100564.98;109112;1259;60066;-77
2023/02/12 07:17:52;;;;;;;4.80;1.60;;;;;;;-0.88;68.95;100566.29;108994;1262;72792;-76
2023/02/12 07:20:25;;;;;;;2.20;1.50;;;;;;;-0.83;69.18;100572.16;109096;1259;68855;-77
2023/02/12 07:22:58;;;;;;;3.20;2.20;;;;;;;-0.78;68.98;100595.92;109085;1260;72003;-74
2023/02/12 07:25:30;;;;;;;3.30;1.50;;;;;;;-0.73;68.72;100604.09;109065;1259;60135;-73
2023/02/12 07:28:06;;;;;;;2.20;1.80;;;;;;;-0.71;68.68;100600.36;109005;1259;60079;-76
2023/02/12 07:30:38;;;;;;;1.70;1.60;;;;;;;-0.67;68.97;100596.23;109053;1259;75080;-74
2023/02/12 07:33:13;;;;;;;2.60;1.90;;;;;;;-0.66;69.20;100601.79;109062;1260;68044;-76
2023/02/12 07:35:44;;;;;;;2.60;1.80;;;;;;;-0.64;69.18;100622.64;109056;1260;71503;-79
2023/02/12 07:38:17;;;;;;;3.80;1.70;;;;;;;-0.62;68.79;100614.92;109024;1260;58875;-75
2023/02/12 07:40:47;;;;;;;1.70;1.60;;;;;;;-0.62;69.03;100605.22;109074;1259;60900;-75
2023/02/12 07:43:18;;;;;;;2.90;2.10;;;;;;;-0.61;69.04;100611.83;109066;1259;73054;-73
2023/02/12 07:45:49;;;;;;;4.40;2.40;;;;;;;-0.62;69.01;100614.85;109027;1260;66585;-74
2023/02/12 07:48:21;;;;;;;5.00;3.70;;;;;;;-0.60;69.13;100612.07;109053;1259;73321;-73
2023/02/12 07:59:04;;;;;;;1.70;1.60;;;;;;;-0.60;68.84;100630.02;103013;1295;601450;-78
2023/02/12 08:01:33;;;;;;;;;;;;;;;-0.63;69.01;100623.27;105032;1267;59333;-74
2023/02/12 08:04:13;;;;;;;2.40;2.10;;;;;;;-0.61;69.07;100632.93;105117;1267;60307;-74
2023/02/12 08:06:43;;;;;;;2.30;1.90;;;;;;;-0.58;68.53;100633.91;105177;1266;73272;-80
2023/02/12 08:09:14;;;;;;;4.60;3.50;;;;;;;-0.58;67.40;100648.80;105066;1267;68258;-75
2023/02/12 08:11:42;;;;;;;7.30;4.40;;;;;;;-0.55;67.63;100652.56;104647;1272;575579;-75
2023/02/12 08:14:16;;;;;;;2.70;2.00;;;;;;;-0.57;66.88;100667.17;105341;1270;60949;-77
2023/02/12 08:16:45;;;;;;;5.30;4.00;;;;;;;-0.62;66.42;100660.43;105384;1267;60653;-80
2023/02/12 08:19:14;;;;;;;6.60;4.10;;;;;;;-0.62;66.60;100649.06;105299;1264;70737;-78
2023/02/12 08:21:50;;;;;;;5.80;4.10;;;;;;;-0.64;66.46;100660.13;105358;1264;69932;-79
2023/02/12 08:24:20;;;;;;;2.70;2.30;;;;;;;-0.62;66.91;100658.41;105378;1264;73216;-78
2023/02/12 08:26:50;;;;;;;3.00;1.90;;;;;;;-0.58;66.90;100655.20;106241;1251;60206;-78
2023/02/12 08:29:22;;;;;;;4.70;2.00;;;;;;;-0.53;66.82;100682.00;106197;1251;60873;-78
2023/02/12 08:31:57;;;;;;;1.80;1.70;;;;;;;-0.50;66.37;100658.73;106128;1257;72769;-74
2023/02/12 08:34:27;;;;;;;2.50;2.10;;;;;;;-0.46;66.21;100666.09;106196;1254;67696;-81
2023/02/12 08:37:26;;;;;;;;;;;;;;;;;;;;;
2023/02/12 08:39:54;;;;;;;2.90;2.00;;;;;;;-0.46;65.44;100679.13;105991;1257;60920;-77
2023/02/12 08:42:24;;;;;;;3.50;3.10;;;;;;;-0.45;65.44;100681.30;106175;1256;61601;-76
2023/02/12 08:44:52;;;;;;;8.30;3.50;;;;;;;-0.42;65.80;100745.55;106199;1250;73817;-75
2023/02/12 08:47:20;;;;;;;4.30;3.50;;;;;;;-0.42;65.20;100721.08;106182;1250;67143;-74
2023/02/12 08:49:49;;;;;;;7.60;3.70;;;;;;;-0.44;65.49;100718.77;105940;1253;73922;-73
2023/02/12 08:52:19;;;;;;;7.30;3.70;;;;;;;-0.44;65.51;100702.69;105967;1254;59772;-78
2023/02/12 08:54:48;;;;;;;3.70;3.10;;;;;;;-0.43;65.94;100730.80;106068;1254;60766;-73
2023/02/12 08:57:18;;;;;;;7.40;3.50;;;;;;;-0.41;65.38;100737.11;106168;1252;72059;-77
2023/02/12 08:59:48;;;;;;;3.00;2.70;;;;;;;-0.38;65.84;100718.34;105842;1259;68436;-74
2023/02/12 09:02:16;;;;;;;2.80;1.70;;;;;;;-0.38;65.51;100723.91;105904;1259;71995;-74
2023/02/12 09:04:44;;;;;;;1.60;1.50;;;;;;;-0.36;65.57;100723.46;105982;1254;61421;-75
2023/02/12 09:07:12;;;;;;;2.60;2.10;;;;;;;-0.39;65.44;100736.73;106137;1252;59548;-74
2023/02/12 09:09:40;;;;;;;2.40;2.00;;;;;;;-0.37;65.02;100728.77;106003;1256;73598;-70
2023/02/12 09:12:09;;;;;;;3.30;2.70;;;;;;;-0.33;65.57;100718.57;106111;1254;69715;-72
2023/02/12 09:14:38;;;;;;;3.50;2.00;;;;;;;-0.32;64.79;100727.59;106247;1254;74223;-70
2023/02/12 09:17:06;;;;;;;5.20;2.30;;;;;;;-0.32;64.59;100738.16;106049;1256;60626;-71
2023/02/12 09:19:36;;;;;;;2.50;2.40;;;;;;;-0.30;64.53;100728.05;106023;1253;59634;-70
2023/02/12 09:22:05;;;;;;;8.30;2.70;;;;;;;-0.28;64.64;100745.67;105958;1253;71906;-75
2023/02/12 09:24:33;;;;;;;4.30;3.90;;;;;;;-0.26;64.75;100732.05;106042;1257;68137;-74
2023/02/12 09:27:01;;;;;;;3.30;2.70;;;;;;;-0.24;64.34;100735.35;105711;1259;72449;-73
2023/02/12 09:29:29;;;;;;;3.60;2.40;;;;;;;-0.23;63.51;100752.34;105768;1256;61515;-74
2023/02/12 09:31:58;;;;;;;5.10;2.70;;;;;;;-0.27;63.30;100758.42;105965;1254;62013;-70
2023/02/12 09:34:27;;;;;;;6.00;4.30;;;;;;;-0.25;63.68;100737.76;105397;1253;72168;-76
2023/02/12 09:36:55;;;;;;;2.00;1.80;;;;;;;-0.19;63.10;100759.45;106059;1254;69551;-75
2023/02/12 09:39:23;;;;;;;11.40;4.00;;;;;;;-0.20;62.18;100760.20;106032;1254;73594;-72
2023/02/12 09:42:11;;;;;;;6.00;3.30;;;;;;;-0.20;62.38;100761.40;105944;1253;60633;-77
2023/02/12 09:44:45;;;;;;;4.80;3.10;;;;;;;-0.17;62.52;100760.03;105847;1254;60213;-72
2023/02/12 09:47:29;;;;;;;6.40;4.10;;;;;;;-0.12;62.45;100743.55;106116;1253;72884;-70
2023/02/12 09:50:08;;;;;;;1.70;1.60;;;;;;;-0.08;61.81;100754.89;105853;1253;67139;-81
2023/02/12 09:52:36;;;;;;;3.80;1.90;;;;;;;-0.04;61.34;100743.92;106037;1257;73418;-83
2023/02/12 09:55:05;;;;;;;2.30;1.80;;;;;;;0.00;61.57;100734.67;105842;1259;60221;-76
2023/02/12 09:57:37;;;;;;;1.90;1.70;;;;;;;0.06;61.72;100736.39;106115;1252;61976;-73
2023/02/12 10:00:32;;;;;;;6.50;2.30;;;;;;;0.12;60.66;100735.81;106059;1256;74500;-73
2023/02/12 10:03:02;;;;;;;3.20;1.70;;;;;;;0.14;61.13;100728.46;105851;1254;66824;-76
2023/02/12 10:05:50;;;;;;;2.50;1.70;;;;;;;0.18;60.83;100744.45;105922;1254;74228;-73
2023/02/12 10:08:40;;;;;;;4.10;2.70;;;;;;;0.18;60.58;100722.14;105784;1257;59634;-75
2023/02/12 10:11:37;;;;;;;2.20;1.90;;;;;;;0.19;61.01;100747.27;105875;1253;61876;-74
2023/02/12 10:14:44;;;;;;;6.90;2.40;;;;;;;0.19;61.26;100736.05;105927;1256;74618;-73
2023/02/12 10:17:45;;;;;;;1.50;1.40;;;;;;;0.25;60.51;100761.36;106103;1256;67806;-74
2023/02/12 10:20:22;;;;;;;3.30;2.10;;;;;;;0.29;60.16;100741.39;104514;1254;1003667;-73
2023/02/12 10:23:16;;;;;;;2.80;1.90;;;;;;;0.29;60.21;100751.61;106052;1254;59717;-72
2023/02/12 10:25:44;;;;;;;;;;;;;;;0.34;60.07;100743.55;105912;1252;60511;-75
2023/02/12 10:28:18;;;;;;;2.30;2.20;;;;;;;0.40;59.81;100751.18;106081;1254;73201;-76
2023/02/12 10:31:01;;;;;;;3.70;1.80;;;;;;;0.44;59.40;100746.85;105886;1254;66884;-75
2023/02/12 10:33:41;;;;;;;5.10;2.40;;;;;;;0.44;59.14;100744.95;106112;1253;71484;-75
2023/02/12 10:36:18;;;;;;;4.70;1.90;;;;;;;0.43;58.97;100744.35;105895;1259;59723;-70
2023/02/12 10:38:49;;;;;;;2.40;2.20;;;;;;;0.47;59.11;100760.70;105749;1254;60222;-69
2023/02/12 10:41:17;;;;;;;1.50;1.40;;;;;;;0.54;58.01;100781.71;105549;1253;72472;-69
2023/02/12 10:43:45;;;;;;;1.60;1.50;;;;;;;0.58;57.85;100769.23;105511;1251;69878;-68
2023/02/12 10:46:14;;;;;;;1.90;1.80;;;;;;;0.60;57.25;100777.11;105768;1254;73682;-72
2023/02/12 10:48:48;;;;;;;3.30;2.30;;;;;;;0.62;56.78;100802.91;105662;1254;59665;-72
2023/02/12 10:51:33;;;;;;;11.80;7.10;;;;;;;0.63;56.75;100758.84;105526;1254;60888;-70
2023/02/12 10:54:31;;;;;;;7.10;4.20;;;;;;;0.68;56.90;100752.52;105632;1256;74518;-71
2023/02/12 10:57:25;;;;;;;3.90;2.00;;;;;;;0.76;56.81;100758.67;105684;1257;68234;-71
2023/02/12 10:59:58;;;;;;;3.10;2.20;;;;;;;0.78;55.07;100768.36;105618;1255;72457;-70
2023/02/12 11:02:31;;;;;;;3.80;2.20;;;;;;;0.83;55.33;100779.71;105403;1254;59651;-72
2023/02/12 11:05:00;;;;;;;2.80;1.80;;;;;;;0.86;55.80;100778.39;105688;1254;60046;-73
2023/02/12 11:07:28;;;;;;;3.10;2.00;;;;;;;0.92;55.57;100783.52;106040;1256;74949;-71
2023/02/12 11:09:57;;;;;;;1.40;1.30;;;;;;;0.97;55.39;100823.76;105556;1258;68695;-69
2023/02/12 11:12:29;;;;;;;2.50;1.60;;;;;;;1.00;55.09;100807.77;105738;1254;71505;-73
2023/02/12 11:15:13;;;;;;;3.00;1.70;;;;;;;0.99;54.72;100795.36;105805;1254;59628;-72
2023/02/12 11:17:43;;;;;;;2.00;1.70;;;;;;;0.98;54.67;100804.56;105604;1253;59817;-72
2023/02/12 11:20:20;;;;;;;2.10;1.50;;;;;;;0.99;53.96;100792.69;105512;1253;73765;-72
2023/02/12 11:22:53;;;;;;;1.90;1.50;;;;;;;1.04;54.13;100799.14;105608;1254;69745;-70
2023/02/12 11:25:23;;;;;;;4.30;1.60;;;;;;;1.14;53.34;100802.36;106092;1251;73669;-71
2023/02/12 11:27:58;;;;;;;2.70;1.70;;;;;;;1.20;52.78;100787.37;105929;1251;61440;-71
2023/02/12 11:30:28;;;;;;;1.80;1.70;;;;;;;1.28;52.77;100804.38;105744;1255;59892;-69
2023/02/12 11:33:13;;;;;;;2.20;1.80;;;;;;;1.32;51.46;100803.06;105418;1259;72396;-71
2023/02/12 11:36:31;;;;;;;7.00;1.90;;;;;;;1.33;51.18;100783.36;105450;1259;68104;-71
2023/02/12 11:39:00;;;;;;;1.90;1.80;;;;;;;1.36;51.48;100789.08;105410;1256;71882;-70
2023/02/12 11:41:35;;;;;;;2.00;1.70;;;;;;;1.37;51.56;100787.37;105820;1256;60329;-68
2023/02/12 11:44:11;;;;;;;1.70;1.40;;;;;;;1.45;51.57;100792.98;105242;1257;61299;-70
2023/02/12 11:46:39;;;;;;;2.60;2.00;;;;;;;1.53;51.30;100793.98;105447;1257;71953;-70
2023/02/12 11:49:16;;;;;;;2.10;1.50;;;;;;;1.57;51.07;100808.30;105366;1261;69446;-70
2023/02/12 11:51:45;;;;;;;2.10;1.60;;;;;;;1.57;51.10;100796.73;105341;1257;73626;-68
2023/02/12 11:54:22;;;;;;;3.60;1.70;;;;;;;1.60;51.48;100794.39;105378;1260;59557;-66
2023/02/12 11:56:54;;;;;;;2.80;1.50;;;;;;;1.62;50.58;100802.98;105377;1257;61122;-69
2023/02/12 11:59:35;;;;;;;2.40;1.60;;;;;;;1.62;50.16;100792.64;105490;1257;73636;-69
2023/02/12 12:02:13;;;;;;;1.50;1.30;;;;;;;1.66;49.98;100784.67;105536;1260;67695;-69